x

Columbia River Bar - 20nm West Of Columbia River Mouth (46029) Wave Buoy

11:50 - Tue 23rd Sep 2014 All times are PDT. -7 hours from GMT.

  • Sig Wave height 6.9ft
  • Swell Direction
  • Peak Period 7s
  • Average Period 5s
  • Wind
    25mph, 31mph gusts
  • Sea Temp 63°f
  • Ar Temp 63°f
  • Sea Pressure 1007.5mb
  • Columbia River Bar - 20nm West Of Columbia River Mouth
  • Columbia River Bar - 20nm West Of Columbia River Mouth

More Historic Weather Station data

Upgrade to MSW Pro to gain access to the past 30 days of data for over 8000 Wavebouys and Weather Stations around the globe.

Join Pro

Comparision Forecast

View Surf forecast
   
Ter 09/23 11:50 7ft 7s 5s 25 31 mph 1007.5mb 63f 63f
10:50 7ft 8s 5s 25 29 mph 1007.9mb 63f 62f
9:50 6ft 7s 5s 22 27 mph 1008mb 63f 61f
8:50 6.5ft 7s 5s 22 29 mph 1008.3mb 63f 61f
7:50 6ft 6s 5s 25 27 mph 1008.1mb 63f 61f
6:50 5.5ft 7s 5s 20 25 mph 1008.4mb 62f 61f
5:50 5ft 8s 5s 20 25 mph 1008.8mb 62f 60f
4:50 5ft 9s 5s 18 20 mph 1009.2mb 62f 60f
3:50 4.5ft 9s 5s 16 18 mph 1009.7mb 62f 62f
2:50 4.5ft 8s 5s 16 18 mph 1010.2mb 62f 62f
12:50 4.5ft 9s 5s 18 22 mph 1011.1mb 62f 61f
Seg 09/22 11:50 5ft 9s 6s 16 20 mph 1011.5mb 62f 61f
10:50 5ft 10s 6s 16 18 mph 1011.8mb 62f 61f
9:50 5ft 9s 6s 16 20 mph 1012.2mb 62f 61f
8:50 5ft 10s 6s 11 13 mph 1012.6mb 62f 61f
7:50 5ft 10s 6s 11 13 mph 1013.1mb 63f 61f
6:50 5.5ft 10s 6s 11
mph
1013.5mb 63f 63f
5:50 5.5ft 10s 6s 11 13 mph 1013.5mb 63f 63f
4:50 5.5ft 10s 6s 13 16 mph 1014mb 63f 63f
3:50 5ft 9s 5s 16 18 mph 1014.2mb 63f 63f
2:50 5.5ft 10s 5s 18 20 mph 1014.7mb 62f 62f
1:50 6ft 10s 6s 18 20 mph 1014.9mb 62f 61f
12:50 6ft 10s 6s 20 22 mph 1014.7mb 62f 61f
11:50 7ft 10s 6s 20 22 mph 1014.9mb 62f 61f
10:50 6ft 10s 6s 20 27 mph 1015mb 62f 61f
9:50 6ft 11s 5s 20 25 mph 1015mb 61f 60f
8:50 6ft 10s 6s 22 27 mph 1015mb 61f 60f
7:50 6ft 11s 6s 20 25 mph 1014.6mb 61f 60f
6:50 5.5ft 11s 5s 22 25 mph 1014.6mb 61f 60f
5:50 5ft 11s 6s 20 25 mph 1014.2mb 61f 60f
4:50 5ft 10s 6s 18 20 mph 1014.1mb 61f 61f
3:50 5ft 10s 6s 11 13 mph 1014.2mb 61f 62f
2:50 5.5ft 10s 6s 9 11 mph 1014.3mb 61f 63f
1:50 5ft 10s 6s 7 9 mph 1014.2mb 61f 62f
12:50 5ft 11s 6s 13 18 mph 1013.9mb 61f 61f
Dom 09/21 11:50 5.5ft 11s 6s 11 13 mph 1013.9mb 61f 63f
10:50 6ft 11s 7s 9 11 mph 1013.8mb 61f 62f
9:50 6ft 11s 6s 13 16 mph 1013.7mb 61f 62f
8:50 6ft 7s 6s 9 11 mph 1013.9mb 61f 62f
7:50 6ft 11s 6s 9 11 mph 1013.4mb 61f 62f
6:50 6ft 11s 6s 13 16 mph 1013.1mb 61f 61f
5:50 7ft 11s 6s 11
mph
1013mb 61f 62f
4:50 6.5ft 13s 6s 18 22 mph 1012.7mb 61f 60f
3:50 6ft 10s 6s 22 27 mph 1012.5mb 60f 60f
2:50 6ft 10s 6s 18 22 mph 1012.5mb 60f 60f
1:50 6ft 11s 6s 18 22 mph 1012.7mb 60f 59f
12:50 6.5ft 11s 6s 20 25 mph 1012.5mb 60f 60f
11:50 7ft 11s 6s 20 25 mph 1012.4mb 59f 60f
10:50 6.5ft 11s 6s 20 25 mph 1012.5mb 59f 59f
9:50 6.5ft 11s 6s 20 22 mph 1012.3mb 59f 59f
8:50 7ft 11s 6s 18 25 mph 1011.9mb 58f 58f
7:50 6ft 11s 7s 20 25 mph 1011.7mb 58f 58f
6:50 6.5ft 11s 6s 16 20 mph 1011.5mb 58f 59f
5:50 6.5ft 11s 6s 18 22 mph 1011.4mb 59f 59f
4:50 6ft 11s 6s 18 20 mph 1010.9mb 59f 59f
3:50 6ft 12s 6s 18 22 mph 1010.7mb 59f 59f
2:50 6ft 12s 6s 22 25 mph 1010.4mb 59f 59f
1:50 5.5ft 12s 5s 22 27 mph 1010.1mb 59f 59f
12:50 5ft 12s 6s 22 27 mph 1009.7mb 59f 59f
Sáb 09/20 11:50 6ft 13s 7s 20 25 mph 1009.3mb 59f 62f
10:50 6.5ft 12s 8s 20 22 mph 1008.6mb 58f 63f
9:50 7ft 12s 8s 7 9 mph 1008.4mb 58f 64f
8:50 8ft 12s 8s 9 11 mph 1008.5mb 59f 63f
7:50 7ft 12s 7s 11
mph
1008.5mb 59f 62f
6:50 7.5ft 11s 8s 13 16 mph 1008.7mb 59f 62f
5:50 8.5ft 11s 8s 16 18 mph 1009.5mb 59f 62f
4:50 8.5ft 12s 8s 16 18 mph 1010.2mb 59f 62f
3:50 8.5ft 12s 8s 13 16 mph 1010.8mb 59f 63f
2:50 9ft 12s 9s 13 16 mph 1011.6mb 59f 63f
1:50 9ft 12s 9s 13 18 mph 1012.4mb 59f 62f
12:50 8ft 12s 8s 16 18 mph 1013.1mb 58f 62f
11:50 9ft 13s 8s 13 16 mph 1013.8mb 58f 61f
10:50 8ft 12s 8s 16 18 mph 1014.4mb 58f 60f
9:50 10ft 13s 9s 16 18 mph 1015mb 58f 60f
8:50 10ft 13s 8s 16 18 mph 1015.6mb 58f 60f
7:50 11ft 13s 9s 16 20 mph 1016mb 58f 58f
6:50 10.5ft 13s 9s 20 22 mph 1016.1mb 58f 57f
5:50 12ft 13s 9s 18 22 mph 1016.4mb 58f 57f
4:50 10.5ft 13s 9s 18 20 mph 1017mb 58f 56f
3:50 10ft 13s 8s 18 20 mph 1017.4mb 58f 56f
2:50 8ft 11s 8s 18 22 mph 1017.9mb 59f 56f
1:50 8.5ft 10s 8s 18 20 mph 1018.3mb 59f 56f
12:50 7ft 10s 7s 18 22 mph 1018.5mb 59f 57f
Sex 09/19 11:50 5.5ft 9s 6s 18 20 mph 1018.6mb 58f 57f
10:50 5ft 9s 7s 16 18 mph 1018.9mb 59f 59f
9:50 5ft 9s 8s 13 16 mph 1018.8mb 59f 60f
8:50 5ft 10s 8s 11 13 mph 1018.7mb 59f 60f
7:50 5ft 9s 8s 11
mph
1018.5mb 59f 60f